sensor_id;sensor_type;location;lat;lon;timestamp;temperature;humidity
7784;DHT22;19359;51.402;6.778;2022-08-19T00:01:19;19.20;99.90
7784;DHT22;19359;51.402;6.778;2022-08-19T00:03:46;19.10;99.90
7784;DHT22;19359;51.402;6.778;2022-08-19T00:06:13;19.10;99.90
7784;DHT22;19359;51.402;6.778;2022-08-19T00:08:40;19.20;99.90
7784;DHT22;19359;51.402;6.778;2022-08-19T00:11:09;19.10;99.90
7784;DHT22;19359;51.402;6.778;2022-08-19T00:13:36;19.10;99.90
7784;DHT22;19359;51.402;6.778;2022-08-19T00:16:04;19.00;99.90
7784;DHT22;19359;51.402;6.778;2022-08-19T00:18:31;19.00;99.90
7784;DHT22;19359;51.402;6.778;2022-08-19T00:20:58;19.00;99.90
7784;DHT22;19359;51.402;6.778;2022-08-19T00:23:26;19.00;99.90
7784;DHT22;19359;51.402;6.778;2022-08-19T00:25:53;19.00;99.90
7784;DHT22;19359;51.402;6.778;2022-08-19T00:28:21;18.80;99.90
7784;DHT22;19359;51.402;6.778;2022-08-19T00:30:47;18.80;99.90
7784;DHT22;19359;51.402;6.778;2022-08-19T00:33:14;18.70;99.90
7784;DHT22;19359;51.402;6.778;2022-08-19T00:35:42;18.70;99.90
7784;DHT22;19359;51.402;6.778;2022-08-19T00:38:08;18.70;99.90
7784;DHT22;19359;51.402;6.778;2022-08-19T00:40:35;18.70;99.90
7784;DHT22;19359;51.402;6.778;2022-08-19T00:43:08;18.70;99.90
7784;DHT22;19359;51.402;6.778;2022-08-19T00:45:36;18.70;99.90
7784;DHT22;19359;51.402;6.778;2022-08-19T00:48:03;18.70;99.90
7784;DHT22;19359;51.402;6.778;2022-08-19T00:50:30;18.70;99.90
7784;DHT22;19359;51.402;6.778;2022-08-19T00:52:58;18.70;99.90
7784;DHT22;19359;51.402;6.778;2022-08-19T00:55:26;18.70;99.90
7784;DHT22;19359;51.402;6.778;2022-08-19T00:57:58;18.70;99.90
7784;DHT22;19359;51.402;6.778;2022-08-19T01:00:27;18.60;99.90
7784;DHT22;19359;51.402;6.778;2022-08-19T01:02:56;18.60;99.90
7784;DHT22;19359;51.402;6.778;2022-08-19T01:05:25;18.60;99.90
7784;DHT22;19359;51.402;6.778;2022-08-19T01:07:53;18.60;99.90
7784;DHT22;19359;51.402;6.778;2022-08-19T01:10:24;18.50;99.90
7784;DHT22;19359;51.402;6.778;2022-08-19T01:12:52;18.40;99.90
7784;DHT22;19359;51.402;6.778;2022-08-19T01:15:22;18.40;99.90
7784;DHT22;19359;51.402;6.778;2022-08-19T01:17:50;18.40;99.90
7784;DHT22;19359;51.402;6.778;2022-08-19T01:20:21;18.40;99.90
7784;DHT22;19359;51.402;6.778;2022-08-19T01:22:51;18.40;99.90
7784;DHT22;19359;51.402;6.778;2022-08-19T01:25:20;18.40;99.90
7784;DHT22;19359;51.402;6.778;2022-08-19T01:27:49;18.40;99.90
7784;DHT22;19359;51.402;6.778;2022-08-19T01:30:18;18.30;99.90
7784;DHT22;19359;51.402;6.778;2022-08-19T01:32:45;18.30;99.90
7784;DHT22;19359;51.402;6.778;2022-08-19T01:35:13;18.30;99.90
7784;DHT22;19359;51.402;6.778;2022-08-19T01:37:45;18.30;99.90
7784;DHT22;19359;51.402;6.778;2022-08-19T01:40:13;18.20;99.90
7784;DHT22;19359;51.402;6.778;2022-08-19T01:42:40;18.30;99.90
7784;DHT22;19359;51.402;6.778;2022-08-19T01:45:07;18.20;99.90
7784;DHT22;19359;51.402;6.778;2022-08-19T01:47:35;18.20;99.90
7784;DHT22;19359;51.402;6.778;2022-08-19T01:50:05;18.10;99.90
7784;DHT22;19359;51.402;6.778;2022-08-19T01:52:32;18.20;99.90
7784;DHT22;19359;51.402;6.778;2022-08-19T01:55:00;18.20;99.90
7784;DHT22;19359;51.402;6.778;2022-08-19T01:57:28;18.10;99.90
7784;DHT22;19359;51.402;6.778;2022-08-19T01:59:55;18.10;99.90
7784;DHT22;19359;51.402;6.778;2022-08-19T02:02:22;18.00;99.90
7784;DHT22;19359;51.402;6.778;2022-08-19T02:04:49;18.10;99.90
7784;DHT22;19359;51.402;6.778;2022-08-19T02:07:19;18.00;99.90
7784;DHT22;19359;51.402;6.778;2022-08-19T02:09:46;18.00;99.90
7784;DHT22;19359;51.402;6.778;2022-08-19T02:12:14;18.00;99.90
7784;DHT22;19359;51.402;6.778;2022-08-19T02:14:43;18.00;99.90
7784;DHT22;19359;51.402;6.778;2022-08-19T02:17:09;17.90;99.90
7784;DHT22;19359;51.402;6.778;2022-08-19T02:19:36;17.90;99.90
7784;DHT22;19359;51.402;6.778;2022-08-19T02:22:03;17.90;99.90
7784;DHT22;19359;51.402;6.778;2022-08-19T02:24:31;17.80;99.90
7784;DHT22;19359;51.402;6.778;2022-08-19T02:26:57;17.80;99.90
7784;DHT22;19359;51.402;6.778;2022-08-19T02:29:24;17.80;99.90
7784;DHT22;19359;51.402;6.778;2022-08-19T02:31:52;17.80;99.90
7784;DHT22;19359;51.402;6.778;2022-08-19T02:34:19;17.80;99.90
7784;DHT22;19359;51.402;6.778;2022-08-19T02:36:46;17.80;99.90
7784;DHT22;19359;51.402;6.778;2022-08-19T02:39:13;17.80;99.90
7784;DHT22;19359;51.402;6.778;2022-08-19T02:41:39;17.80;99.90
7784;DHT22;19359;51.402;6.778;2022-08-19T02:44:06;17.80;99.90
7784;DHT22;19359;51.402;6.778;2022-08-19T02:46:33;17.70;99.90
7784;DHT22;19359;51.402;6.778;2022-08-19T02:49:05;17.70;99.90
7784;DHT22;19359;51.402;6.778;2022-08-19T02:51:34;17.70;99.90
7784;DHT22;19359;51.402;6.778;2022-08-19T02:54:02;17.70;99.90
7784;DHT22;19359;51.402;6.778;2022-08-19T02:56:29;17.70;99.90
7784;DHT22;19359;51.402;6.778;2022-08-19T02:58:57;17.70;99.90
7784;DHT22;19359;51.402;6.778;2022-08-19T03:01:27;17.70;99.90
7784;DHT22;19359;51.402;6.778;2022-08-19T03:03:54;17.70;99.90
7784;DHT22;19359;51.402;6.778;2022-08-19T03:06:23;17.70;99.90
7784;DHT22;19359;51.402;6.778;2022-08-19T03:08:50;17.70;99.90
7784;DHT22;19359;51.402;6.778;2022-08-19T03:11:19;17.60;99.90
7784;DHT22;19359;51.402;6.778;2022-08-19T03:13:47;17.60;99.90
7784;DHT22;19359;51.402;6.778;2022-08-19T03:16:16;17.60;99.90
7784;DHT22;19359;51.402;6.778;2022-08-19T03:18:43;17.60;99.90
7784;DHT22;19359;51.402;6.778;2022-08-19T03:21:15;17.60;99.90
7784;DHT22;19359;51.402;6.778;2022-08-19T03:23:43;17.60;99.90
7784;DHT22;19359;51.402;6.778;2022-08-19T03:26:10;17.60;99.90
7784;DHT22;19359;51.402;6.778;2022-08-19T03:28:37;17.60;99.90
7784;DHT22;19359;51.402;6.778;2022-08-19T03:31:06;17.60;99.90
7784;DHT22;19359;51.402;6.778;2022-08-19T03:33:34;17.60;99.90
7784;DHT22;19359;51.402;6.778;2022-08-19T03:36:05;17.60;99.90
7784;DHT22;19359;51.402;6.778;2022-08-19T03:38:33;17.50;99.90
7784;DHT22;19359;51.402;6.778;2022-08-19T03:41:04;17.60;99.90
7784;DHT22;19359;51.402;6.778;2022-08-19T03:43:34;17.60;99.90
7784;DHT22;19359;51.402;6.778;2022-08-19T03:46:03;17.70;99.90
7784;DHT22;19359;51.402;6.778;2022-08-19T03:48:31;17.70;99.90
7784;DHT22;19359;51.402;6.778;2022-08-19T03:50:59;17.60;99.90
7784;DHT22;19359;51.402;6.778;2022-08-19T03:53:27;17.50;99.90
7784;DHT22;19359;51.402;6.778;2022-08-19T03:55:55;17.60;99.90
7784;DHT22;19359;51.402;6.778;2022-08-19T03:58:23;17.60;99.90
7784;DHT22;19359;51.402;6.778;2022-08-19T04:00:50;17.60;99.90
7784;DHT22;19359;51.402;6.778;2022-08-19T04:03:17;17.50;99.90
7784;DHT22;19359;51.402;6.778;2022-08-19T04:05:45;17.50;99.90
7784;DHT22;19359;51.402;6.778;2022-08-19T04:08:12;17.50;99.90
7784;DHT22;19359;51.402;6.778;2022-08-19T04:10:47;17.40;99.90
7784;DHT22;19359;51.402;6.778;2022-08-19T04:13:14;17.40;99.90
7784;DHT22;19359;51.402;6.778;2022-08-19T04:15:44;17.40;99.90
7784;DHT22;19359;51.402;6.778;2022-08-19T04:18:12;17.30;99.90
7784;DHT22;19359;51.402;6.778;2022-08-19T04:20:43;17.30;99.90
7784;DHT22;19359;51.402;6.778;2022-08-19T04:23:10;17.20;99.90
7784;DHT22;19359;51.402;6.778;2022-08-19T04:25:38;17.20;99.90
7784;DHT22;19359;51.402;6.778;2022-08-19T04:28:06;17.20;99.90
7784;DHT22;19359;51.402;6.778;2022-08-19T04:30:38;17.20;99.90
7784;DHT22;19359;51.402;6.778;2022-08-19T04:33:07;17.20;99.90
7784;DHT22;19359;51.402;6.778;2022-08-19T04:35:36;17.20;99.90
7784;DHT22;19359;51.402;6.778;2022-08-19T04:38:03;17.20;99.90
7784;DHT22;19359;51.402;6.778;2022-08-19T04:40:30;17.20;99.90
7784;DHT22;19359;51.402;6.778;2022-08-19T04:43:15;17.20;99.90
7784;DHT22;19359;51.402;6.778;2022-08-19T04:45:42;17.20;99.90
7784;DHT22;19359;51.402;6.778;2022-08-19T04:48:11;17.30;99.90
7784;DHT22;19359;51.402;6.778;2022-08-19T04:50:40;17.30;99.90
7784;DHT22;19359;51.402;6.778;2022-08-19T04:53:08;17.20;99.90
7784;DHT22;19359;51.402;6.778;2022-08-19T04:55:37;17.30;99.90
7784;DHT22;19359;51.402;6.778;2022-08-19T04:58:04;17.30;99.90
7784;DHT22;19359;51.402;6.778;2022-08-19T05:00:32;17.30;99.90
7784;DHT22;19359;51.402;6.778;2022-08-19T05:02:58;17.30;99.90
7784;DHT22;19359;51.402;6.778;2022-08-19T05:05:27;17.40;99.90
7784;DHT22;19359;51.402;6.778;2022-08-19T05:07:54;17.50;99.90
7784;DHT22;19359;51.402;6.778;2022-08-19T05:10:21;17.60;99.90
7784;DHT22;19359;51.402;6.778;2022-08-19T05:12:48;17.60;99.90
7784;DHT22;19359;51.402;6.778;2022-08-19T05:15:15;17.70;99.90
7784;DHT22;19359;51.402;6.778;2022-08-19T05:17:41;17.80;99.90
7784;DHT22;19359;51.402;6.778;2022-08-19T05:20:30;17.80;99.90
7784;DHT22;19359;51.402;6.778;2022-08-19T05:23:14;17.90;99.90
7784;DHT22;19359;51.402;6.778;2022-08-19T05:25:42;17.90;99.90
7784;DHT22;19359;51.402;6.778;2022-08-19T05:28:09;18.00;99.90
7784;DHT22;19359;51.402;6.778;2022-08-19T05:33:06;18.10;99.90
7784;DHT22;19359;51.402;6.778;2022-08-19T05:35:35;18.10;99.90
7784;DHT22;19359;51.402;6.778;2022-08-19T05:38:03;18.20;99.90
7784;DHT22;19359;51.402;6.778;2022-08-19T05:40:30;18.10;99.90
7784;DHT22;19359;51.402;6.778;2022-08-19T05:42:56;18.30;99.90
7784;DHT22;19359;51.402;6.778;2022-08-19T05:45:23;18.30;99.90
7784;DHT22;19359;51.402;6.778;2022-08-19T05:47:50;18.30;99.90
7784;DHT22;19359;51.402;6.778;2022-08-19T05:50:17;18.40;99.90
7784;DHT22;19359;51.402;6.778;2022-08-19T05:52:45;18.50;99.90
7784;DHT22;19359;51.402;6.778;2022-08-19T05:55:12;18.60;99.90
7784;DHT22;19359;51.402;6.778;2022-08-19T05:57:39;18.60;99.90
7784;DHT22;19359;51.402;6.778;2022-08-19T06:00:07;18.80;99.90
7784;DHT22;19359;51.402;6.778;2022-08-19T06:02:35;18.90;99.90
7784;DHT22;19359;51.402;6.778;2022-08-19T06:05:03;18.90;99.90
7784;DHT22;19359;51.402;6.778;2022-08-19T06:09:59;19.10;99.90
7784;DHT22;19359;51.402;6.778;2022-08-19T06:12:26;19.10;99.90
7784;DHT22;19359;51.402;6.778;2022-08-19T06:14:59;19.10;99.90
7784;DHT22;19359;51.402;6.778;2022-08-19T06:17:26;19.20;99.90
7784;DHT22;19359;51.402;6.778;2022-08-19T06:19:53;19.30;99.90
7784;DHT22;19359;51.402;6.778;2022-08-19T06:22:20;19.40;99.90
7784;DHT22;19359;51.402;6.778;2022-08-19T06:27:19;19.60;99.90
7784;DHT22;19359;51.402;6.778;2022-08-19T06:29:46;19.60;99.90
7784;DHT22;19359;51.402;6.778;2022-08-19T06:32:15;19.70;99.90
7784;DHT22;19359;51.402;6.778;2022-08-19T06:34:43;19.70;99.90
7784;DHT22;19359;51.402;6.778;2022-08-19T06:37:11;19.80;99.90
7784;DHT22;19359;51.402;6.778;2022-08-19T06:39:40;19.90;99.90
7784;DHT22;19359;51.402;6.778;2022-08-19T06:42:08;20.00;99.90
7784;DHT22;19359;51.402;6.778;2022-08-19T06:44:39;20.00;99.90
7784;DHT22;19359;51.402;6.778;2022-08-19T06:47:09;20.10;99.90
7784;DHT22;19359;51.402;6.778;2022-08-19T06:49:36;20.10;99.90
7784;DHT22;19359;51.402;6.778;2022-08-19T06:52:04;20.20;99.90
7784;DHT22;19359;51.402;6.778;2022-08-19T06:54:31;20.20;99.90
7784;DHT22;19359;51.402;6.778;2022-08-19T06:56:59;20.30;99.90
7784;DHT22;19359;51.402;6.778;2022-08-19T06:59:28;20.30;99.90
7784;DHT22;19359;51.402;6.778;2022-08-19T07:02:01;20.40;99.90
7784;DHT22;19359;51.402;6.778;2022-08-19T07:04:31;20.50;99.90
7784;DHT22;19359;51.402;6.778;2022-08-19T07:07:01;20.60;99.90
7784;DHT22;19359;51.402;6.778;2022-08-19T07:09:28;20.60;99.90
7784;DHT22;19359;51.402;6.778;2022-08-19T07:11:55;20.60;99.90
7784;DHT22;19359;51.402;6.778;2022-08-19T07:14:24;20.60;99.90
7784;DHT22;19359;51.402;6.778;2022-08-19T07:16:53;20.80;99.90
7784;DHT22;19359;51.402;6.778;2022-08-19T07:19:24;20.90;99.90
7784;DHT22;19359;51.402;6.778;2022-08-19T07:21:53;21.10;99.90
7784;DHT22;19359;51.402;6.778;2022-08-19T07:24:21;21.20;99.90
7784;DHT22;19359;51.402;6.778;2022-08-19T07:26:50;21.20;99.90
7784;DHT22;19359;51.402;6.778;2022-08-19T07:29:18;21.20;99.90
7784;DHT22;19359;51.402;6.778;2022-08-19T07:31:45;21.30;99.90
7784;DHT22;19359;51.402;6.778;2022-08-19T07:34:13;21.40;99.90
7784;DHT22;19359;51.402;6.778;2022-08-19T07:36:42;21.60;99.90
7784;DHT22;19359;51.402;6.778;2022-08-19T07:39:11;21.80;99.90
7784;DHT22;19359;51.402;6.778;2022-08-19T07:41:38;21.90;99.90
7784;DHT22;19359;51.402;6.778;2022-08-19T07:44:07;22.00;99.90
7784;DHT22;19359;51.402;6.778;2022-08-19T07:46:35;22.00;99.90
7784;DHT22;19359;51.402;6.778;2022-08-19T07:49:04;21.90;99.90
7784;DHT22;19359;51.402;6.778;2022-08-19T07:51:32;22.50;99.90
7784;DHT22;19359;51.402;6.778;2022-08-19T07:54:00;22.00;99.90
7784;DHT22;19359;51.402;6.778;2022-08-19T07:56:27;22.10;99.90
7784;DHT22;19359;51.402;6.778;2022-08-19T07:58:54;22.30;99.90
7784;DHT22;19359;51.402;6.778;2022-08-19T08:01:24;22.30;99.90
7784;DHT22;19359;51.402;6.778;2022-08-19T08:03:52;22.40;99.90
7784;DHT22;19359;51.402;6.778;2022-08-19T08:06:37;22.30;99.90
7784;DHT22;19359;51.402;6.778;2022-08-19T08:09:24;22.50;99.90
7784;DHT22;19359;51.402;6.778;2022-08-19T08:11:55;22.60;99.90
7784;DHT22;19359;51.402;6.778;2022-08-19T08:14:24;22.70;99.90
7784;DHT22;19359;51.402;6.778;2022-08-19T08:16:51;23.00;99.90
7784;DHT22;19359;51.402;6.778;2022-08-19T08:19:20;23.00;99.90
7784;DHT22;19359;51.402;6.778;2022-08-19T08:21:48;22.90;99.90
7784;DHT22;19359;51.402;6.778;2022-08-19T08:24:15;22.90;99.90
7784;DHT22;19359;51.402;6.778;2022-08-19T08:26:44;22.90;99.90
7784;DHT22;19359;51.402;6.778;2022-08-19T08:29:11;23.00;99.90
7784;DHT22;19359;51.402;6.778;2022-08-19T08:31:40;23.10;99.90
7784;DHT22;19359;51.402;6.778;2022-08-19T08:34:07;23.20;99.90
7784;DHT22;19359;51.402;6.778;2022-08-19T08:36:36;23.10;99.90
7784;DHT22;19359;51.402;6.778;2022-08-19T08:41:49;23.00;99.90
7784;DHT22;19359;51.402;6.778;2022-08-19T08:44:22;23.10;99.90
7784;DHT22;19359;51.402;6.778;2022-08-19T08:46:52;23.20;99.90
7784;DHT22;19359;51.402;6.778;2022-08-19T08:49:27;23.30;99.90
7784;DHT22;19359;51.402;6.778;2022-08-19T08:52:00;23.60;99.90
7784;DHT22;19359;51.402;6.778;2022-08-19T08:54:32;23.70;99.90
7784;DHT22;19359;51.402;6.778;2022-08-19T08:56:59;23.70;99.90
7784;DHT22;19359;51.402;6.778;2022-08-19T08:59:29;23.60;99.90
7784;DHT22;19359;51.402;6.778;2022-08-19T09:01:57;23.70;99.90
7784;DHT22;19359;51.402;6.778;2022-08-19T09:06:54;23.90;99.90
7784;DHT22;19359;51.402;6.778;2022-08-19T09:09:26;23.90;99.90
7784;DHT22;19359;51.402;6.778;2022-08-19T09:12:04;23.90;99.90
7784;DHT22;19359;51.402;6.778;2022-08-19T09:14:39;23.90;99.90
7784;DHT22;19359;51.402;6.778;2022-08-19T09:17:12;24.10;99.90
7784;DHT22;19359;51.402;6.778;2022-08-19T09:19:50;23.90;99.90
7784;DHT22;19359;51.402;6.778;2022-08-19T09:22:17;23.90;99.90
7784;DHT22;19359;51.402;6.778;2022-08-19T09:24:47;23.80;99.90
7784;DHT22;19359;51.402;6.778;2022-08-19T09:27:14;23.80;99.90
7784;DHT22;19359;51.402;6.778;2022-08-19T09:29:42;24.00;99.90
7784;DHT22;19359;51.402;6.778;2022-08-19T09:32:09;24.20;99.90
7784;DHT22;19359;51.402;6.778;2022-08-19T09:34:36;24.20;99.90
7784;DHT22;19359;51.402;6.778;2022-08-19T09:37:03;24.50;99.90
7784;DHT22;19359;51.402;6.778;2022-08-19T09:39:30;24.70;99.90
7784;DHT22;19359;51.402;6.778;2022-08-19T09:41:57;25.00;99.90
7784;DHT22;19359;51.402;6.778;2022-08-19T09:44:24;25.10;99.90
7784;DHT22;19359;51.402;6.778;2022-08-19T09:46:52;25.10;99.90
7784;DHT22;19359;51.402;6.778;2022-08-19T09:49:19;25.20;99.90
7784;DHT22;19359;51.402;6.778;2022-08-19T09:51:49;25.20;99.90
7784;DHT22;19359;51.402;6.778;2022-08-19T09:54:17;24.90;99.90
7784;DHT22;19359;51.402;6.778;2022-08-19T09:56:44;24.90;99.90
7784;DHT22;19359;51.402;6.778;2022-08-19T09:59:11;24.50;99.90
7784;DHT22;19359;51.402;6.778;2022-08-19T10:01:38;24.50;99.90
7784;DHT22;19359;51.402;6.778;2022-08-19T10:04:06;24.70;99.90
7784;DHT22;19359;51.402;6.778;2022-08-19T10:06:36;24.70;99.90
7784;DHT22;19359;51.402;6.778;2022-08-19T10:09:04;24.90;99.90
7784;DHT22;19359;51.402;6.778;2022-08-19T10:11:32;25.20;99.90
7784;DHT22;19359;51.402;6.778;2022-08-19T10:14:00;25.30;99.90
7784;DHT22;19359;51.402;6.778;2022-08-19T10:16:27;25.40;99.90
7784;DHT22;19359;51.402;6.778;2022-08-19T10:18:54;25.40;99.90
7784;DHT22;19359;51.402;6.778;2022-08-19T10:21:24;25.50;99.90
7784;DHT22;19359;51.402;6.778;2022-08-19T10:23:53;25.50;99.90
7784;DHT22;19359;51.402;6.778;2022-08-19T10:26:26;25.50;99.90
7784;DHT22;19359;51.402;6.778;2022-08-19T10:28:53;25.50;99.90
7784;DHT22;19359;51.402;6.778;2022-08-19T10:31:22;25.30;99.90
7784;DHT22;19359;51.402;6.778;2022-08-19T10:33:50;25.20;99.90
7784;DHT22;19359;51.402;6.778;2022-08-19T10:36:26;25.20;99.90
7784;DHT22;19359;51.402;6.778;2022-08-19T10:38:55;25.30;99.90
7784;DHT22;19359;51.402;6.778;2022-08-19T10:41:25;25.30;99.90
7784;DHT22;19359;51.402;6.778;2022-08-19T10:43:54;25.20;99.90
7784;DHT22;19359;51.402;6.778;2022-08-19T10:46:22;25.20;99.90
7784;DHT22;19359;51.402;6.778;2022-08-19T10:48:49;25.30;99.90
7784;DHT22;19359;51.402;6.778;2022-08-19T10:51:17;25.40;99.90
7784;DHT22;19359;51.402;6.778;2022-08-19T10:54:02;25.60;99.90
7784;DHT22;19359;51.402;6.778;2022-08-19T10:56:30;25.60;99.90
7784;DHT22;19359;51.402;6.778;2022-08-19T10:59:15;25.60;99.90
7784;DHT22;19359;51.402;6.778;2022-08-19T11:01:43;25.60;99.90
7784;DHT22;19359;51.402;6.778;2022-08-19T11:04:11;26.00;99.90
7784;DHT22;19359;51.402;6.778;2022-08-19T11:06:39;26.00;99.90
7784;DHT22;19359;51.402;6.778;2022-08-19T11:09:09;26.40;99.90
7784;DHT22;19359;51.402;6.778;2022-08-19T11:11:37;26.40;99.90
7784;DHT22;19359;51.402;6.778;2022-08-19T11:14:06;26.40;99.90
7784;DHT22;19359;51.402;6.778;2022-08-19T11:16:33;26.40;99.90
7784;DHT22;19359;51.402;6.778;2022-08-19T11:19:00;26.70;99.90
7784;DHT22;19359;51.402;6.778;2022-08-19T11:21:29;26.90;99.90
7784;DHT22;19359;51.402;6.778;2022-08-19T11:23:59;26.80;99.90
7784;DHT22;19359;51.402;6.778;2022-08-19T11:26:28;26.80;99.90
7784;DHT22;19359;51.402;6.778;2022-08-19T11:28:56;26.60;99.90
7784;DHT22;19359;51.402;6.778;2022-08-19T11:31:24;26.80;99.90
7784;DHT22;19359;51.402;6.778;2022-08-19T11:33:52;26.90;99.90
7784;DHT22;19359;51.402;6.778;2022-08-19T11:36:20;26.10;99.90
7784;DHT22;19359;51.402;6.778;2022-08-19T11:38:47;26.00;99.90
7784;DHT22;19359;51.402;6.778;2022-08-19T11:41:17;25.90;99.90
7784;DHT22;19359;51.402;6.778;2022-08-19T11:43:45;25.50;99.90
7784;DHT22;19359;51.402;6.778;2022-08-19T11:46:14;25.50;99.90
7784;DHT22;19359;51.402;6.778;2022-08-19T11:51:09;26.50;99.90
7784;DHT22;19359;51.402;6.778;2022-08-19T11:53:37;27.10;99.90
7784;DHT22;19359;51.402;6.778;2022-08-19T11:56:06;27.50;99.90
7784;DHT22;19359;51.402;6.778;2022-08-19T11:58:35;27.50;99.90
7784;DHT22;19359;51.402;6.778;2022-08-19T12:01:06;27.40;99.90
7784;DHT22;19359;51.402;6.778;2022-08-19T12:03:33;27.50;99.90
7784;DHT22;19359;51.402;6.778;2022-08-19T12:06:04;27.70;99.90
7784;DHT22;19359;51.402;6.778;2022-08-19T12:08:31;28.00;99.90
7784;DHT22;19359;51.402;6.778;2022-08-19T12:10:57;28.10;99.90
7784;DHT22;19359;51.402;6.778;2022-08-19T12:13:26;28.10;99.90
7784;DHT22;19359;51.402;6.778;2022-08-19T12:15:53;28.40;99.90
7784;DHT22;19359;51.402;6.778;2022-08-19T12:18:22;28.40;99.90
7784;DHT22;19359;51.402;6.778;2022-08-19T12:20:51;28.40;99.90
7784;DHT22;19359;51.402;6.778;2022-08-19T12:23:20;28.30;99.90
7784;DHT22;19359;51.402;6.778;2022-08-19T12:25:48;29.20;99.90
7784;DHT22;19359;51.402;6.778;2022-08-19T12:28:17;29.20;99.90
7784;DHT22;19359;51.402;6.778;2022-08-19T12:30:44;29.20;99.90
7784;DHT22;19359;51.402;6.778;2022-08-19T12:33:11;29.20;99.90
7784;DHT22;19359;51.402;6.778;2022-08-19T12:35:40;29.60;99.90
7784;DHT22;19359;51.402;6.778;2022-08-19T12:38:07;30.10;99.90
7784;DHT22;19359;51.402;6.778;2022-08-19T12:40:34;30.40;99.90
7784;DHT22;19359;51.402;6.778;2022-08-19T12:43:01;30.40;99.90
7784;DHT22;19359;51.402;6.778;2022-08-19T12:45:28;30.10;99.90
7784;DHT22;19359;51.402;6.778;2022-08-19T12:47:55;30.70;99.90
7784;DHT22;19359;51.402;6.778;2022-08-19T12:50:22;30.60;99.90
7784;DHT22;19359;51.402;6.778;2022-08-19T12:52:50;31.00;99.90
7784;DHT22;19359;51.402;6.778;2022-08-19T12:55:17;30.80;99.90
7784;DHT22;19359;51.402;6.778;2022-08-19T12:57:45;30.70;99.90
7784;DHT22;19359;51.402;6.778;2022-08-19T13:00:15;31.30;99.90
7784;DHT22;19359;51.402;6.778;2022-08-19T13:02:43;32.30;99.90
7784;DHT22;19359;51.402;6.778;2022-08-19T13:05:13;32.20;99.90
7784;DHT22;19359;51.402;6.778;2022-08-19T13:07:41;32.50;99.90
7784;DHT22;19359;51.402;6.778;2022-08-19T13:10:13;32.50;99.90
7784;DHT22;19359;51.402;6.778;2022-08-19T13:12:41;32.10;99.90
7784;DHT22;19359;51.402;6.778;2022-08-19T13:15:09;32.40;99.90
7784;DHT22;19359;51.402;6.778;2022-08-19T13:17:36;32.40;99.90
7784;DHT22;19359;51.402;6.778;2022-08-19T13:20:04;32.20;99.90
7784;DHT22;19359;51.402;6.778;2022-08-19T13:22:33;32.20;99.90
7784;DHT22;19359;51.402;6.778;2022-08-19T13:25:01;31.70;99.90
7784;DHT22;19359;51.402;6.778;2022-08-19T13:27:30;31.70;99.90
7784;DHT22;19359;51.402;6.778;2022-08-19T13:29:57;30.40;99.90
7784;DHT22;19359;51.402;6.778;2022-08-19T13:32:41;30.40;99.90
7784;DHT22;19359;51.402;6.778;2022-08-19T13:35:25;30.80;99.90
7784;DHT22;19359;51.402;6.778;2022-08-19T13:37:52;30.80;99.90
7784;DHT22;19359;51.402;6.778;2022-08-19T13:40:21;31.40;99.90
7784;DHT22;19359;51.402;6.778;2022-08-19T13:42:52;31.80;99.90
7784;DHT22;19359;51.402;6.778;2022-08-19T13:45:21;31.80;99.90
7784;DHT22;19359;51.402;6.778;2022-08-19T13:47:49;32.10;99.90
7784;DHT22;19359;51.402;6.778;2022-08-19T13:50:18;32.20;99.90
7784;DHT22;19359;51.402;6.778;2022-08-19T13:52:45;33.00;99.90
7784;DHT22;19359;51.402;6.778;2022-08-19T13:55:13;32.60;99.90
7784;DHT22;19359;51.402;6.778;2022-08-19T13:57:41;32.80;99.90
7784;DHT22;19359;51.402;6.778;2022-08-19T14:00:13;33.20;99.90
7784;DHT22;19359;51.402;6.778;2022-08-19T14:02:40;33.60;99.90
7784;DHT22;19359;51.402;6.778;2022-08-19T14:05:11;33.10;99.90
7784;DHT22;19359;51.402;6.778;2022-08-19T14:07:38;32.50;99.90
7784;DHT22;19359;51.402;6.778;2022-08-19T14:10:08;32.50;99.90
7784;DHT22;19359;51.402;6.778;2022-08-19T14:12:36;32.50;99.90
7784;DHT22;19359;51.402;6.778;2022-08-19T14:15:03;32.60;99.90
7784;DHT22;19359;51.402;6.778;2022-08-19T14:17:32;34.70;99.90
7784;DHT22;19359;51.402;6.778;2022-08-19T14:20:01;34.70;99.90
7784;DHT22;19359;51.402;6.778;2022-08-19T14:22:32;34.50;99.90
7784;DHT22;19359;51.402;6.778;2022-08-19T14:25:00;33.50;99.90
7784;DHT22;19359;51.402;6.778;2022-08-19T14:27:26;34.50;99.90
7784;DHT22;19359;51.402;6.778;2022-08-19T14:29:53;33.40;99.90
7784;DHT22;19359;51.402;6.778;2022-08-19T14:32:20;32.40;99.90
7784;DHT22;19359;51.402;6.778;2022-08-19T14:34:48;32.30;99.90
7784;DHT22;19359;51.402;6.778;2022-08-19T14:37:15;31.80;99.90
7784;DHT22;19359;51.402;6.778;2022-08-19T14:39:42;32.30;99.90
7784;DHT22;19359;51.402;6.778;2022-08-19T14:42:10;32.30;99.90
7784;DHT22;19359;51.402;6.778;2022-08-19T14:44:37;32.60;99.90
7784;DHT22;19359;51.402;6.778;2022-08-19T14:47:04;31.10;99.90
7784;DHT22;19359;51.402;6.778;2022-08-19T14:49:32;31.10;99.90
7784;DHT22;19359;51.402;6.778;2022-08-19T14:52:00;31.30;99.90
7784;DHT22;19359;51.402;6.778;2022-08-19T14:54:28;32.10;99.90
7784;DHT22;19359;51.402;6.778;2022-08-19T14:56:56;32.40;99.90
7784;DHT22;19359;51.402;6.778;2022-08-19T14:59:23;33.20;99.90
7784;DHT22;19359;51.402;6.778;2022-08-19T15:01:50;33.10;99.90
7784;DHT22;19359;51.402;6.778;2022-08-19T15:04:17;32.50;99.90
7784;DHT22;19359;51.402;6.778;2022-08-19T15:06:44;32.50;99.90
7784;DHT22;19359;51.402;6.778;2022-08-19T15:09:12;32.20;99.90
7784;DHT22;19359;51.402;6.778;2022-08-19T15:11:39;32.10;99.90
7784;DHT22;19359;51.402;6.778;2022-08-19T15:14:06;33.00;99.90
7784;DHT22;19359;51.402;6.778;2022-08-19T15:16:33;33.00;99.90
7784;DHT22;19359;51.402;6.778;2022-08-19T15:19:00;34.20;99.90
7784;DHT22;19359;51.402;6.778;2022-08-19T15:21:28;34.30;99.90
7784;DHT22;19359;51.402;6.778;2022-08-19T15:23:57;34.40;99.90
7784;DHT22;19359;51.402;6.778;2022-08-19T15:26:25;35.20;99.90
7784;DHT22;19359;51.402;6.778;2022-08-19T15:28:53;35.30;99.90
7784;DHT22;19359;51.402;6.778;2022-08-19T15:31:21;34.40;99.90
7784;DHT22;19359;51.402;6.778;2022-08-19T15:33:48;34.50;99.90
7784;DHT22;19359;51.402;6.778;2022-08-19T15:36:16;35.10;99.90
7784;DHT22;19359;51.402;6.778;2022-08-19T15:38:43;35.70;99.90
7784;DHT22;19359;51.402;6.778;2022-08-19T15:41:16;35.80;99.90
7784;DHT22;19359;51.402;6.778;2022-08-19T15:43:51;34.90;99.90
7784;DHT22;19359;51.402;6.778;2022-08-19T15:46:22;34.70;99.90
7784;DHT22;19359;51.402;6.778;2022-08-19T15:48:51;34.60;99.90
7784;DHT22;19359;51.402;6.778;2022-08-19T15:51:19;34.80;99.90
7784;DHT22;19359;51.402;6.778;2022-08-19T15:53:46;34.70;99.90
7784;DHT22;19359;51.402;6.778;2022-08-19T15:56:14;35.10;99.90
7784;DHT22;19359;51.402;6.778;2022-08-19T15:58:41;34.90;99.90
7784;DHT22;19359;51.402;6.778;2022-08-19T16:01:27;34.50;99.90
7784;DHT22;19359;51.402;6.778;2022-08-19T16:04:08;32.80;99.90
7784;DHT22;19359;51.402;6.778;2022-08-19T16:06:55;31.60;99.90
7784;DHT22;19359;51.402;6.778;2022-08-19T16:09:24;31.60;99.90